sensor_id;sensor_type;location;lat;lon;timestamp;temperature;humidity
15879;DHT22;61999;51.514;14.614;2023-12-20T00:01:50;1.50;94.60
15879;DHT22;61999;51.514;14.614;2023-12-20T00:04:19;1.40;95.10
15879;DHT22;61999;51.514;14.614;2023-12-20T00:06:48;1.50;94.40
15879;DHT22;61999;51.514;14.614;2023-12-20T00:09:16;1.30;95.10
15879;DHT22;61999;51.514;14.614;2023-12-20T00:11:44;1.40;94.90
15879;DHT22;61999;51.514;14.614;2023-12-20T00:14:13;1.40;94.60
15879;DHT22;61999;51.514;14.614;2023-12-20T00:16:41;1.20;94.80
15879;DHT22;61999;51.514;14.614;2023-12-20T00:19:09;1.00;95.40
15879;DHT22;61999;51.514;14.614;2023-12-20T00:21:39;1.00;95.30
15879;DHT22;61999;51.514;14.614;2023-12-20T00:24:07;1.00;95.50
15879;DHT22;61999;51.514;14.614;2023-12-20T00:26:35;1.00;95.30
15879;DHT22;61999;51.514;14.614;2023-12-20T00:29:03;0.90;95.80
15879;DHT22;61999;51.514;14.614;2023-12-20T00:31:31;0.90;95.60
15879;DHT22;61999;51.514;14.614;2023-12-20T00:33:59;1.00;95.30
15879;DHT22;61999;51.514;14.614;2023-12-20T00:36:28;0.90;95.40
15879;DHT22;61999;51.514;14.614;2023-12-20T00:38:57;0.80;95.70
15879;DHT22;61999;51.514;14.614;2023-12-20T00:41:25;0.80;95.90
15879;DHT22;61999;51.514;14.614;2023-12-20T00:43:54;0.80;95.90
15879;DHT22;61999;51.514;14.614;2023-12-20T00:46:22;0.70;95.90
15879;DHT22;61999;51.514;14.614;2023-12-20T00:48:51;0.70;95.90
15879;DHT22;61999;51.514;14.614;2023-12-20T00:51:19;0.70;95.90
15879;DHT22;61999;51.514;14.614;2023-12-20T00:53:50;0.60;96.00
15879;DHT22;61999;51.514;14.614;2023-12-20T00:56:22;0.60;95.80
15879;DHT22;61999;51.514;14.614;2023-12-20T00:58:50;0.50;96.40
15879;DHT22;61999;51.514;14.614;2023-12-20T01:01:18;0.50;96.40
15879;DHT22;61999;51.514;14.614;2023-12-20T01:03:46;0.70;96.00
15879;DHT22;61999;51.514;14.614;2023-12-20T01:06:14;0.60;96.10
15879;DHT22;61999;51.514;14.614;2023-12-20T01:08:43;0.70;95.90
15879;DHT22;61999;51.514;14.614;2023-12-20T01:11:11;0.90;95.60
15879;DHT22;61999;51.514;14.614;2023-12-20T01:13:40;0.70;95.40
15879;DHT22;61999;51.514;14.614;2023-12-20T01:16:10;0.50;96.00
15879;DHT22;61999;51.514;14.614;2023-12-20T01:18:38;0.50;96.20
15879;DHT22;61999;51.514;14.614;2023-12-20T01:21:06;0.50;96.20
15879;DHT22;61999;51.514;14.614;2023-12-20T01:23:34;0.30;96.50
15879;DHT22;61999;51.514;14.614;2023-12-20T01:26:03;0.20;96.40
15879;DHT22;61999;51.514;14.614;2023-12-20T01:28:32;0.10;96.80
15879;DHT22;61999;51.514;14.614;2023-12-20T01:31:05;0.00;97.10
15879;DHT22;61999;51.514;14.614;2023-12-20T01:33:34;0.10;97.00
15879;DHT22;61999;51.514;14.614;2023-12-20T01:36:03;0.10;96.70
15879;DHT22;61999;51.514;14.614;2023-12-20T01:38:32;0.00;97.20
15879;DHT22;61999;51.514;14.614;2023-12-20T01:41:00;0.20;97.00
15879;DHT22;61999;51.514;14.614;2023-12-20T01:43:29;0.40;96.40
15879;DHT22;61999;51.514;14.614;2023-12-20T01:46:01;0.50;96.10
15879;DHT22;61999;51.514;14.614;2023-12-20T01:48:31;0.50;96.20
15879;DHT22;61999;51.514;14.614;2023-12-20T01:51:00;0.50;96.40
15879;DHT22;61999;51.514;14.614;2023-12-20T01:53:30;0.70;96.00
15879;DHT22;61999;51.514;14.614;2023-12-20T01:55:59;0.80;95.70
15879;DHT22;61999;51.514;14.614;2023-12-20T01:58:32;0.90;95.60
15879;DHT22;61999;51.514;14.614;2023-12-20T02:01:04;1.00;95.10
15879;DHT22;61999;51.514;14.614;2023-12-20T02:03:34;0.90;95.20
15879;DHT22;61999;51.514;14.614;2023-12-20T02:06:04;0.80;95.30
15879;DHT22;61999;51.514;14.614;2023-12-20T02:08:36;0.70;95.50
15879;DHT22;61999;51.514;14.614;2023-12-20T02:11:04;0.70;95.70
15879;DHT22;61999;51.514;14.614;2023-12-20T02:13:33;0.70;95.30
15879;DHT22;61999;51.514;14.614;2023-12-20T02:16:01;0.60;95.60
15879;DHT22;61999;51.514;14.614;2023-12-20T02:18:31;0.70;95.70
15879;DHT22;61999;51.514;14.614;2023-12-20T02:21:04;0.70;95.40
15879;DHT22;61999;51.514;14.614;2023-12-20T02:23:34;0.70;95.60
15879;DHT22;61999;51.514;14.614;2023-12-20T02:26:03;0.60;95.80
15879;DHT22;61999;51.514;14.614;2023-12-20T02:28:33;0.70;95.50
15879;DHT22;61999;51.514;14.614;2023-12-20T02:31:02;0.70;95.90
15879;DHT22;61999;51.514;14.614;2023-12-20T02:33:30;0.60;96.00
15879;DHT22;61999;51.514;14.614;2023-12-20T02:35:58;0.80;95.30
15879;DHT22;61999;51.514;14.614;2023-12-20T02:38:26;0.70;96.10
15879;DHT22;61999;51.514;14.614;2023-12-20T02:40:56;0.70;95.80
15879;DHT22;61999;51.514;14.614;2023-12-20T02:43:24;0.90;95.40
15879;DHT22;61999;51.514;14.614;2023-12-20T02:45:52;0.80;95.40
15879;DHT22;61999;51.514;14.614;2023-12-20T02:48:20;1.00;95.40
15879;DHT22;61999;51.514;14.614;2023-12-20T02:50:48;1.10;95.20
15879;DHT22;61999;51.514;14.614;2023-12-20T02:53:17;1.20;94.90
15879;DHT22;61999;51.514;14.614;2023-12-20T02:55:45;1.20;94.40
15879;DHT22;61999;51.514;14.614;2023-12-20T02:58:14;1.00;94.60
15879;DHT22;61999;51.514;14.614;2023-12-20T03:00:44;0.80;94.90
15879;DHT22;61999;51.514;14.614;2023-12-20T03:03:13;0.60;95.20
15879;DHT22;61999;51.514;14.614;2023-12-20T03:05:41;0.80;95.30
15879;DHT22;61999;51.514;14.614;2023-12-20T03:08:10;0.80;95.30
15879;DHT22;61999;51.514;14.614;2023-12-20T03:10:39;0.80;95.00
15879;DHT22;61999;51.514;14.614;2023-12-20T03:13:07;0.60;95.20
15879;DHT22;61999;51.514;14.614;2023-12-20T03:15:36;0.40;95.70
15879;DHT22;61999;51.514;14.614;2023-12-20T03:18:05;0.30;95.90
15879;DHT22;61999;51.514;14.614;2023-12-20T03:20:35;0.30;96.20
15879;DHT22;61999;51.514;14.614;2023-12-20T03:23:03;0.30;96.40
15879;DHT22;61999;51.514;14.614;2023-12-20T03:25:31;0.40;95.80
15879;DHT22;61999;51.514;14.614;2023-12-20T03:27:59;0.50;96.00
15879;DHT22;61999;51.514;14.614;2023-12-20T03:30:28;0.50;95.90
15879;DHT22;61999;51.514;14.614;2023-12-20T03:32:57;0.50;95.60
15879;DHT22;61999;51.514;14.614;2023-12-20T03:35:25;0.40;95.90
15879;DHT22;61999;51.514;14.614;2023-12-20T03:37:54;0.20;96.10
15879;DHT22;61999;51.514;14.614;2023-12-20T03:40:23;0.20;96.30
15879;DHT22;61999;51.514;14.614;2023-12-20T03:42:52;0.30;96.30
15879;DHT22;61999;51.514;14.614;2023-12-20T03:45:20;0.20;96.20
15879;DHT22;61999;51.514;14.614;2023-12-20T03:47:48;0.10;96.50
15879;DHT22;61999;51.514;14.614;2023-12-20T03:50:18;0.10;96.60
15879;DHT22;61999;51.514;14.614;2023-12-20T03:52:47;0.00;96.50
15879;DHT22;61999;51.514;14.614;2023-12-20T03:55:15;-0.10;96.70
15879;DHT22;61999;51.514;14.614;2023-12-20T03:57:44;-0.10;96.80
15879;DHT22;61999;51.514;14.614;2023-12-20T04:00:14;0.00;96.90
15879;DHT22;61999;51.514;14.614;2023-12-20T04:02:43;0.20;96.30
15879;DHT22;61999;51.514;14.614;2023-12-20T04:05:12;0.10;96.30
15879;DHT22;61999;51.514;14.614;2023-12-20T04:07:41;0.00;96.60
15879;DHT22;61999;51.514;14.614;2023-12-20T04:10:11;0.00;96.80
15879;DHT22;61999;51.514;14.614;2023-12-20T04:12:39;0.30;96.90
15879;DHT22;61999;51.514;14.614;2023-12-20T04:15:08;0.40;96.00
15879;DHT22;61999;51.514;14.614;2023-12-20T04:17:38;0.40;95.70
15879;DHT22;61999;51.514;14.614;2023-12-20T04:20:07;0.30;96.10
15879;DHT22;61999;51.514;14.614;2023-12-20T04:22:36;0.30;96.20
15879;DHT22;61999;51.514;14.614;2023-12-20T04:25:07;0.30;96.00
15879;DHT22;61999;51.514;14.614;2023-12-20T04:27:36;0.30;96.00
15879;DHT22;61999;51.514;14.614;2023-12-20T04:30:07;0.20;96.10
15879;DHT22;61999;51.514;14.614;2023-12-20T04:32:36;0.20;96.10
15879;DHT22;61999;51.514;14.614;2023-12-20T04:35:04;0.30;96.10
15879;DHT22;61999;51.514;14.614;2023-12-20T04:37:34;0.20;96.30
15879;DHT22;61999;51.514;14.614;2023-12-20T04:40:09;0.20;96.50
15879;DHT22;61999;51.514;14.614;2023-12-20T04:42:38;0.30;96.20
15879;DHT22;61999;51.514;14.614;2023-12-20T04:45:08;0.50;95.90
15879;DHT22;61999;51.514;14.614;2023-12-20T04:47:39;0.50;96.00
15879;DHT22;61999;51.514;14.614;2023-12-20T04:50:14;0.60;95.70
15879;DHT22;61999;51.514;14.614;2023-12-20T04:52:43;0.60;95.40
15879;DHT22;61999;51.514;14.614;2023-12-20T04:55:13;0.50;95.70
15879;DHT22;61999;51.514;14.614;2023-12-20T04:57:42;0.40;95.70
15879;DHT22;61999;51.514;14.614;2023-12-20T05:00:12;0.50;95.80
15879;DHT22;61999;51.514;14.614;2023-12-20T05:02:42;0.50;95.70
15879;DHT22;61999;51.514;14.614;2023-12-20T05:05:10;0.50;95.90
15879;DHT22;61999;51.514;14.614;2023-12-20T05:07:39;0.60;95.60
15879;DHT22;61999;51.514;14.614;2023-12-20T05:10:08;0.50;95.90
15879;DHT22;61999;51.514;14.614;2023-12-20T05:12:38;0.40;96.10
15879;DHT22;61999;51.514;14.614;2023-12-20T05:15:07;0.60;95.90
15879;DHT22;61999;51.514;14.614;2023-12-20T05:17:35;0.60;95.60
15879;DHT22;61999;51.514;14.614;2023-12-20T05:20:05;0.40;95.90
15879;DHT22;61999;51.514;14.614;2023-12-20T05:22:34;0.50;96.00
15879;DHT22;61999;51.514;14.614;2023-12-20T05:25:04;0.40;95.90
15879;DHT22;61999;51.514;14.614;2023-12-20T05:27:32;0.40;96.00
15879;DHT22;61999;51.514;14.614;2023-12-20T05:30:02;0.30;96.10
15879;DHT22;61999;51.514;14.614;2023-12-20T05:32:31;0.30;96.30
15879;DHT22;61999;51.514;14.614;2023-12-20T05:34:59;0.30;96.40
15879;DHT22;61999;51.514;14.614;2023-12-20T05:37:28;0.40;96.20
15879;DHT22;61999;51.514;14.614;2023-12-20T05:39:56;0.50;95.80
15879;DHT22;61999;51.514;14.614;2023-12-20T05:42:26;0.30;96.10
15879;DHT22;61999;51.514;14.614;2023-12-20T05:44:54;0.20;96.50
15879;DHT22;61999;51.514;14.614;2023-12-20T05:47:25;0.30;96.30
15879;DHT22;61999;51.514;14.614;2023-12-20T05:49:53;0.40;95.90
15879;DHT22;61999;51.514;14.614;2023-12-20T05:52:21;0.40;95.90
15879;DHT22;61999;51.514;14.614;2023-12-20T05:54:49;0.40;96.00
15879;DHT22;61999;51.514;14.614;2023-12-20T05:57:19;0.40;95.90
15879;DHT22;61999;51.514;14.614;2023-12-20T05:59:47;0.50;95.60
15879;DHT22;61999;51.514;14.614;2023-12-20T06:02:16;0.40;95.70
15879;DHT22;61999;51.514;14.614;2023-12-20T06:04:46;0.40;95.70
15879;DHT22;61999;51.514;14.614;2023-12-20T06:07:15;0.30;95.90
15879;DHT22;61999;51.514;14.614;2023-12-20T06:09:44;0.30;95.70
15879;DHT22;61999;51.514;14.614;2023-12-20T06:12:12;0.10;96.10
15879;DHT22;61999;51.514;14.614;2023-12-20T06:14:40;0.10;96.10
15879;DHT22;61999;51.514;14.614;2023-12-20T06:17:08;0.00;96.60
15879;DHT22;61999;51.514;14.614;2023-12-20T06:19:36;0.10;96.40
15879;DHT22;61999;51.514;14.614;2023-12-20T06:22:05;0.10;96.50
15879;DHT22;61999;51.514;14.614;2023-12-20T06:24:34;0.10;96.50
15879;DHT22;61999;51.514;14.614;2023-12-20T06:27:02;0.00;96.80
15879;DHT22;61999;51.514;14.614;2023-12-20T06:29:31;0.00;96.50
15879;DHT22;61999;51.514;14.614;2023-12-20T06:31:59;0.00;96.70
15879;DHT22;61999;51.514;14.614;2023-12-20T06:34:26;-0.20;96.80
15879;DHT22;61999;51.514;14.614;2023-12-20T06:36:59;-0.20;97.30
15879;DHT22;61999;51.514;14.614;2023-12-20T06:39:28;-0.10;97.10
15879;DHT22;61999;51.514;14.614;2023-12-20T06:41:57;0.00;96.90
15879;DHT22;61999;51.514;14.614;2023-12-20T06:44:25;0.10;96.90
15879;DHT22;61999;51.514;14.614;2023-12-20T06:46:53;0.20;96.60
15879;DHT22;61999;51.514;14.614;2023-12-20T06:49:21;0.20;96.30
15879;DHT22;61999;51.514;14.614;2023-12-20T06:51:50;0.20;96.40
15879;DHT22;61999;51.514;14.614;2023-12-20T06:54:18;0.10;96.30
15879;DHT22;61999;51.514;14.614;2023-12-20T06:56:47;0.10;96.50
15879;DHT22;61999;51.514;14.614;2023-12-20T06:59:15;0.10;96.30
15879;DHT22;61999;51.514;14.614;2023-12-20T07:01:47;0.30;95.80
15879;DHT22;61999;51.514;14.614;2023-12-20T07:04:16;0.30;95.80
15879;DHT22;61999;51.514;14.614;2023-12-20T07:06:48;0.30;96.00
15879;DHT22;61999;51.514;14.614;2023-12-20T07:09:18;0.50;95.40
15879;DHT22;61999;51.514;14.614;2023-12-20T07:11:47;0.60;94.60
15879;DHT22;61999;51.514;14.614;2023-12-20T07:14:15;0.50;94.70
15879;DHT22;61999;51.514;14.614;2023-12-20T07:16:43;0.50;94.80
15879;DHT22;61999;51.514;14.614;2023-12-20T07:19:12;0.40;94.60
15879;DHT22;61999;51.514;14.614;2023-12-20T07:21:40;0.40;95.10
15879;DHT22;61999;51.514;14.614;2023-12-20T07:24:08;0.40;94.60
15879;DHT22;61999;51.514;14.614;2023-12-20T07:26:36;0.30;94.70
15879;DHT22;61999;51.514;14.614;2023-12-20T07:29:07;0.20;94.70
15879;DHT22;61999;51.514;14.614;2023-12-20T07:31:35;0.10;95.00
15879;DHT22;61999;51.514;14.614;2023-12-20T07:34:05;0.10;95.00
15879;DHT22;61999;51.514;14.614;2023-12-20T07:36:33;0.10;95.00
15879;DHT22;61999;51.514;14.614;2023-12-20T07:39:01;0.00;95.30
15879;DHT22;61999;51.514;14.614;2023-12-20T07:41:29;0.10;95.30
15879;DHT22;61999;51.514;14.614;2023-12-20T07:43:57;0.20;95.00
15879;DHT22;61999;51.514;14.614;2023-12-20T07:46:27;0.20;94.60
15879;DHT22;61999;51.514;14.614;2023-12-20T07:48:55;0.20;94.70
15879;DHT22;61999;51.514;14.614;2023-12-20T07:51:23;0.30;94.50
15879;DHT22;61999;51.514;14.614;2023-12-20T07:53:51;0.40;94.40
15879;DHT22;61999;51.514;14.614;2023-12-20T07:56:20;0.20;94.60
15879;DHT22;61999;51.514;14.614;2023-12-20T07:58:48;0.20;94.60
15879;DHT22;61999;51.514;14.614;2023-12-20T08:01:17;0.00;94.90
15879;DHT22;61999;51.514;14.614;2023-12-20T08:03:48;0.10;95.20
15879;DHT22;61999;51.514;14.614;2023-12-20T08:06:17;0.30;94.80
15879;DHT22;61999;51.514;14.614;2023-12-20T08:08:46;0.50;94.30
15879;DHT22;61999;51.514;14.614;2023-12-20T08:11:15;0.60;94.20
15879;DHT22;61999;51.514;14.614;2023-12-20T08:13:44;0.60;94.20
15879;DHT22;61999;51.514;14.614;2023-12-20T08:16:12;0.50;94.40
15879;DHT22;61999;51.514;14.614;2023-12-20T08:18:42;0.60;94.40
15879;DHT22;61999;51.514;14.614;2023-12-20T08:21:11;0.50;94.40
15879;DHT22;61999;51.514;14.614;2023-12-20T08:23:40;0.50;94.20
15879;DHT22;61999;51.514;14.614;2023-12-20T08:26:08;0.50;94.20
15879;DHT22;61999;51.514;14.614;2023-12-20T08:28:37;0.40;94.30
15879;DHT22;61999;51.514;14.614;2023-12-20T08:31:05;0.50;94.50
15879;DHT22;61999;51.514;14.614;2023-12-20T08:33:33;0.50;94.50
15879;DHT22;61999;51.514;14.614;2023-12-20T08:36:02;0.50;94.50
15879;DHT22;61999;51.514;14.614;2023-12-20T08:38:33;0.60;94.40
15879;DHT22;61999;51.514;14.614;2023-12-20T08:41:01;0.70;94.30
15879;DHT22;61999;51.514;14.614;2023-12-20T08:43:31;0.60;94.50
15879;DHT22;61999;51.514;14.614;2023-12-20T08:46:00;0.70;94.40
15879;DHT22;61999;51.514;14.614;2023-12-20T08:48:28;0.80;94.10
15879;DHT22;61999;51.514;14.614;2023-12-20T08:50:56;0.80;94.00
15879;DHT22;61999;51.514;14.614;2023-12-20T08:53:24;0.70;94.30
15879;DHT22;61999;51.514;14.614;2023-12-20T08:55:54;0.70;94.30
15879;DHT22;61999;51.514;14.614;2023-12-20T08:58:24;0.90;93.70
15879;DHT22;61999;51.514;14.614;2023-12-20T09:00:52;0.70;93.90
15879;DHT22;61999;51.514;14.614;2023-12-20T09:03:21;0.60;94.40
15879;DHT22;61999;51.514;14.614;2023-12-20T09:05:49;0.50;94.40
15879;DHT22;61999;51.514;14.614;2023-12-20T09:08:17;0.50;94.60
15879;DHT22;61999;51.514;14.614;2023-12-20T09:10:45;0.60;94.50
15879;DHT22;61999;51.514;14.614;2023-12-20T09:13:14;0.60;94.60
15879;DHT22;61999;51.514;14.614;2023-12-20T09:15:42;0.70;94.30
15879;DHT22;61999;51.514;14.614;2023-12-20T09:18:10;0.70;94.50
15879;DHT22;61999;51.514;14.614;2023-12-20T09:20:39;0.60;94.50
15879;DHT22;61999;51.514;14.614;2023-12-20T09:23:07;0.90;93.80
15879;DHT22;61999;51.514;14.614;2023-12-20T09:25:35;0.90;93.60
15879;DHT22;61999;51.514;14.614;2023-12-20T09:28:04;0.80;93.90
15879;DHT22;61999;51.514;14.614;2023-12-20T09:30:34;0.80;93.80
15879;DHT22;61999;51.514;14.614;2023-12-20T09:33:06;0.70;94.00
15879;DHT22;61999;51.514;14.614;2023-12-20T09:35:34;0.60;94.20
15879;DHT22;61999;51.514;14.614;2023-12-20T09:38:03;0.50;94.30
15879;DHT22;61999;51.514;14.614;2023-12-20T09:40:33;0.40;94.00
15879;DHT22;61999;51.514;14.614;2023-12-20T09:43:04;0.40;94.30
15879;DHT22;61999;51.514;14.614;2023-12-20T09:45:40;0.40;94.80
15879;DHT22;61999;51.514;14.614;2023-12-20T09:48:10;0.60;94.30
15879;DHT22;61999;51.514;14.614;2023-12-20T09:50:41;0.60;93.90
15879;DHT22;61999;51.514;14.614;2023-12-20T09:53:14;0.60;94.00
15879;DHT22;61999;51.514;14.614;2023-12-20T09:55:43;0.70;93.90
15879;DHT22;61999;51.514;14.614;2023-12-20T09:58:13;0.70;93.60
15879;DHT22;61999;51.514;14.614;2023-12-20T10:00:43;0.80;93.20
15879;DHT22;61999;51.514;14.614;2023-12-20T10:03:11;0.80;93.30
15879;DHT22;61999;51.514;14.614;2023-12-20T10:05:43;0.90;92.90
15879;DHT22;61999;51.514;14.614;2023-12-20T10:08:12;0.90;93.10
15879;DHT22;61999;51.514;14.614;2023-12-20T10:10:40;0.70;93.00
15879;DHT22;61999;51.514;14.614;2023-12-20T10:13:11;0.80;92.70
15879;DHT22;61999;51.514;14.614;2023-12-20T10:15:40;0.80;92.70
15879;DHT22;61999;51.514;14.614;2023-12-20T10:18:12;0.90;92.50
15879;DHT22;61999;51.514;14.614;2023-12-20T10:20:41;0.90;92.40
15879;DHT22;61999;51.514;14.614;2023-12-20T10:23:10;0.90;92.70
15879;DHT22;61999;51.514;14.614;2023-12-20T10:25:39;1.10;92.00
15879;DHT22;61999;51.514;14.614;2023-12-20T10:28:10;1.00;91.20
15879;DHT22;61999;51.514;14.614;2023-12-20T10:30:40;0.60;91.90
15879;DHT22;61999;51.514;14.614;2023-12-20T10:33:10;0.70;92.30
15879;DHT22;61999;51.514;14.614;2023-12-20T10:35:40;0.80;91.90
15879;DHT22;61999;51.514;14.614;2023-12-20T10:38:10;0.90;91.60
15879;DHT22;61999;51.514;14.614;2023-12-20T10:40:40;0.80;91.90
15879;DHT22;61999;51.514;14.614;2023-12-20T10:43:08;1.00;91.50
15879;DHT22;61999;51.514;14.614;2023-12-20T10:45:38;1.10;91.40
15879;DHT22;61999;51.514;14.614;2023-12-20T10:48:07;1.30;91.10
15879;DHT22;61999;51.514;14.614;2023-12-20T10:50:40;1.60;90.40
15879;DHT22;61999;51.514;14.614;2023-12-20T10:53:09;1.70;90.10
15879;DHT22;61999;51.514;14.614;2023-12-20T10:55:39;1.80;89.80
15879;DHT22;61999;51.514;14.614;2023-12-20T10:58:08;2.00;89.60
15879;DHT22;61999;51.514;14.614;2023-12-20T11:00:39;2.10;89.50
15879;DHT22;61999;51.514;14.614;2023-12-20T11:03:10;2.20;88.30
15879;DHT22;61999;51.514;14.614;2023-12-20T11:05:47;2.10;87.80
15879;DHT22;61999;51.514;14.614;2023-12-20T11:08:28;2.00;88.00
15879;DHT22;61999;51.514;14.614;2023-12-20T11:11:05;1.90;88.10
15879;DHT22;61999;51.514;14.614;2023-12-20T11:13:43;2.00;88.40
15879;DHT22;61999;51.514;14.614;2023-12-20T11:16:21;2.00;87.10
15879;DHT22;61999;51.514;14.614;2023-12-20T11:18:50;1.90;88.50
15879;DHT22;61999;51.514;14.614;2023-12-20T11:21:20;2.20;88.30
15879;DHT22;61999;51.514;14.614;2023-12-20T11:23:49;2.50;87.10
15879;DHT22;61999;51.514;14.614;2023-12-20T11:26:22;2.50;87.80
15879;DHT22;61999;51.514;14.614;2023-12-20T11:29:31;2.70;85.60
15879;DHT22;61999;51.514;14.614;2023-12-20T11:32:01;2.80;83.70
15879;DHT22;61999;51.514;14.614;2023-12-20T11:34:35;2.40;85.10
15879;DHT22;61999;51.514;14.614;2023-12-20T11:37:05;2.40;84.60
15879;DHT22;61999;51.514;14.614;2023-12-20T11:39:35;2.20;85.90
15879;DHT22;61999;51.514;14.614;2023-12-20T11:42:05;2.30;86.00
15879;DHT22;61999;51.514;14.614;2023-12-20T11:44:35;2.40;86.60
15879;DHT22;61999;51.514;14.614;2023-12-20T11:47:04;2.50;86.90
15879;DHT22;61999;51.514;14.614;2023-12-20T11:49:32;2.50;84.30
15879;DHT22;61999;51.514;14.614;2023-12-20T11:52:00;2.10;86.10
15879;DHT22;61999;51.514;14.614;2023-12-20T11:54:31;2.00;87.20
15879;DHT22;61999;51.514;14.614;2023-12-20T11:56:59;2.30;85.80
15879;DHT22;61999;51.514;14.614;2023-12-20T11:59:28;2.10;85.60
15879;DHT22;61999;51.514;14.614;2023-12-20T12:01:56;1.90;87.00
15879;DHT22;61999;51.514;14.614;2023-12-20T12:04:27;2.10;85.60
15879;DHT22;61999;51.514;14.614;2023-12-20T12:06:55;2.30;85.70
15879;DHT22;61999;51.514;14.614;2023-12-20T12:09:23;2.50;83.90
15879;DHT22;61999;51.514;14.614;2023-12-20T12:11:53;2.50;83.30
15879;DHT22;61999;51.514;14.614;2023-12-20T12:14:21;2.50;83.70
15879;DHT22;61999;51.514;14.614;2023-12-20T12:16:49;2.60;83.20
15879;DHT22;61999;51.514;14.614;2023-12-20T12:19:20;2.40;82.70
15879;DHT22;61999;51.514;14.614;2023-12-20T12:21:50;2.10;83.50
15879;DHT22;61999;51.514;14.614;2023-12-20T12:24:20;2.20;84.30
15879;DHT22;61999;51.514;14.614;2023-12-20T12:26:57;2.10;83.20
15879;DHT22;61999;51.514;14.614;2023-12-20T12:29:25;2.10;83.40
15879;DHT22;61999;51.514;14.614;2023-12-20T12:31:53;1.80;83.90
15879;DHT22;61999;51.514;14.614;2023-12-20T12:34:22;1.80;85.40
15879;DHT22;61999;51.514;14.614;2023-12-20T12:36:51;2.20;83.40
15879;DHT22;61999;51.514;14.614;2023-12-20T12:39:20;2.30;83.20
15879;DHT22;61999;51.514;14.614;2023-12-20T12:41:48;2.30;82.30
15879;DHT22;61999;51.514;14.614;2023-12-20T12:44:17;2.30;82.00
15879;DHT22;61999;51.514;14.614;2023-12-20T12:46:46;2.20;82.00
15879;DHT22;61999;51.514;14.614;2023-12-20T12:49:17;1.90;82.90
15879;DHT22;61999;51.514;14.614;2023-12-20T12:51:45;1.60;83.30
15879;DHT22;61999;51.514;14.614;2023-12-20T12:54:13;1.40;84.60
15879;DHT22;61999;51.514;14.614;2023-12-20T12:56:43;1.10;85.10
15879;DHT22;61999;51.514;14.614;2023-12-20T12:59:11;0.80;86.40
15879;DHT22;61999;51.514;14.614;2023-12-20T13:01:41;0.80;87.10
15879;DHT22;61999;51.514;14.614;2023-12-20T13:04:09;0.80;87.00
15879;DHT22;61999;51.514;14.614;2023-12-20T13:06:38;0.80;86.60
15879;DHT22;61999;51.514;14.614;2023-12-20T13:09:07;0.90;87.10
15879;DHT22;61999;51.514;14.614;2023-12-20T13:11:36;0.70;86.70
15879;DHT22;61999;51.514;14.614;2023-12-20T13:14:04;0.60;87.50
15879;DHT22;61999;51.514;14.614;2023-12-20T13:16:32;0.70;87.40
15879;DHT22;61999;51.514;14.614;2023-12-20T13:19:03;0.80;87.30
15879;DHT22;61999;51.514;14.614;2023-12-20T13:21:31;0.90;87.00
15879;DHT22;61999;51.514;14.614;2023-12-20T13:23:59;1.00;86.10
15879;DHT22;61999;51.514;14.614;2023-12-20T13:26:27;1.10;85.90
15879;DHT22;61999;51.514;14.614;2023-12-20T13:28:55;1.20;85.50
15879;DHT22;61999;51.514;14.614;2023-12-20T13:31:23;1.10;85.10
15879;DHT22;61999;51.514;14.614;2023-12-20T13:33:52;1.10;86.30
15879;DHT22;61999;51.514;14.614;2023-12-20T13:36:23;1.30;85.60
15879;DHT22;61999;51.514;14.614;2023-12-20T13:39:03;1.40;83.70
15879;DHT22;61999;51.514;14.614;2023-12-20T13:41:32;1.40;84.30
15879;DHT22;61999;51.514;14.614;2023-12-20T13:44:00;1.20;84.10
15879;DHT22;61999;51.514;14.614;2023-12-20T13:46:30;1.10;84.70
15879;DHT22;61999;51.514;14.614;2023-12-20T13:48:58;0.80;84.50
15879;DHT22;61999;51.514;14.614;2023-12-20T13:51:28;0.70;86.30
15879;DHT22;61999;51.514;14.614;2023-12-20T13:53:56;0.70;86.10
15879;DHT22;61999;51.514;14.614;2023-12-20T13:56:25;0.70;85.80
15879;DHT22;61999;51.514;14.614;2023-12-20T13:58:54;0.80;85.50
15879;DHT22;61999;51.514;14.614;2023-12-20T14:01:23;0.90;86.00
15879;DHT22;61999;51.514;14.614;2023-12-20T14:03:51;0.80;86.90
15879;DHT22;61999;51.514;14.614;2023-12-20T14:06:19;0.80;85.80
15879;DHT22;61999;51.514;14.614;2023-12-20T14:08:49;0.80;85.90
15879;DHT22;61999;51.514;14.614;2023-12-20T14:11:17;0.70;85.30
15879;DHT22;61999;51.514;14.614;2023-12-20T14:13:45;0.60;85.90
15879;DHT22;61999;51.514;14.614;2023-12-20T14:16:14;0.50;85.90
15879;DHT22;61999;51.514;14.614;2023-12-20T14:18:44;0.30;87.00
15879;DHT22;61999;51.514;14.614;2023-12-20T14:21:12;0.30;87.10
15879;DHT22;61999;51.514;14.614;2023-12-20T14:23:40;0.20;87.70
15879;DHT22;61999;51.514;14.614;2023-12-20T14:26:11;0.30;87.30
15879;DHT22;61999;51.514;14.614;2023-12-20T14:28:41;0.40;86.70
15879;DHT22;61999;51.514;14.614;2023-12-20T14:31:09;0.40;85.50
15879;DHT22;61999;51.514;14.614;2023-12-20T14:33:38;0.20;86.50
15879;DHT22;61999;51.514;14.614;2023-12-20T14:36:08;0.30;86.60
15879;DHT22;61999;51.514;14.614;2023-12-20T14:38:36;0.40;86.20
15879;DHT22;61999;51.514;14.614;2023-12-20T14:41:04;0.50;85.60
15879;DHT22;61999;51.514;14.614;2023-12-20T14:43:36;0.60;85.60
15879;DHT22;61999;51.514;14.614;2023-12-20T14:46:04;0.40;85.50
15879;DHT22;61999;51.514;14.614;2023-12-20T14:48:33;0.40;86.00
15879;DHT22;61999;51.514;14.614;2023-12-20T14:51:01;0.50;85.90
15879;DHT22;61999;51.514;14.614;2023-12-20T14:53:29;0.70;85.00
15879;DHT22;61999;51.514;14.614;2023-12-20T14:55:57;0.60;84.50
15879;DHT22;61999;51.514;14.614;2023-12-20T14:58:25;0.50;85.00
15879;DHT22;61999;51.514;14.614;2023-12-20T15:00:54;0.50;84.60
15879;DHT22;61999;51.514;14.614;2023-12-20T15:03:23;0.40;85.30
15879;DHT22;61999;51.514;14.614;2023-12-20T15:05:51;0.60;85.00
15879;DHT22;61999;51.514;14.614;2023-12-20T15:08:19;0.60;84.50
15879;DHT22;61999;51.514;14.614;2023-12-20T15:10:48;0.60;84.70
15879;DHT22;61999;51.514;14.614;2023-12-20T15:13:17;0.70;84.80
15879;DHT22;61999;51.514;14.614;2023-12-20T15:15:45;0.70;84.60
15879;DHT22;61999;51.514;14.614;2023-12-20T15:18:15;0.70;85.20
15879;DHT22;61999;51.514;14.614;2023-12-20T15:20:43;0.80;84.50
15879;DHT22;61999;51.514;14.614;2023-12-20T15:23:11;0.80;84.70
15879;DHT22;61999;51.514;14.614;2023-12-20T15:25:40;1.10;83.60
15879;DHT22;61999;51.514;14.614;2023-12-20T15:28:08;1.20;83.90
15879;DHT22;61999;51.514;14.614;2023-12-20T15:30:37;1.40;83.10
15879;DHT22;61999;51.514;14.614;2023-12-20T15:33:05;1.20;83.00
15879;DHT22;61999;51.514;14.614;2023-12-20T15:35:35;0.80;86.40
15879;DHT22;61999;51.514;14.614;2023-12-20T15:38:03;0.60;87.90
15879;DHT22;61999;51.514;14.614;2023-12-20T15:40:31;0.20;89.60
15879;DHT22;61999;51.514;14.614;2023-12-20T15:42:59;0.10;89.60